createdAt,value
2023-02-23T00:00:15.817Z,8.10
2023-02-23T00:01:16.110Z,9.60
2023-02-23T00:02:15.603Z,8.70
2023-02-23T00:03:15.617Z,9.00
2023-02-23T00:04:15.550Z,10.70
2023-02-23T00:05:15.575Z,9.90
2023-02-23T00:06:15.568Z,9.70
2023-02-23T00:07:15.545Z,9.50
2023-02-23T00:08:15.736Z,8.40
2023-02-23T00:09:15.523Z,10.30
2023-02-23T00:10:15.794Z,9.80
2023-02-23T00:11:16.061Z,8.80
2023-02-23T00:12:15.457Z,9.40
2023-02-23T00:13:15.484Z,11.40
2023-02-23T00:14:15.816Z,11.70
2023-02-23T00:15:15.449Z,9.90
2023-02-23T00:16:15.511Z,10.70
2023-02-23T00:17:15.526Z,9.80
2023-02-23T00:18:15.848Z,9.40
2023-02-23T00:19:15.906Z,10.10
2023-02-23T00:20:15.829Z,8.70
2023-02-23T00:21:15.481Z,9.60
2023-02-23T00:22:15.854Z,9.40
2023-02-23T00:23:15.845Z,10.30
2023-02-23T00:24:15.850Z,9.60
2023-02-23T00:25:15.574Z,9.50
2023-02-23T00:26:15.748Z,10.70
2023-02-23T00:27:15.559Z,9.30
2023-02-23T00:28:15.280Z,9.50
2023-02-23T00:29:15.560Z,10.00
2023-02-23T00:30:15.849Z,11.70
2023-02-23T00:31:15.929Z,9.40
2023-02-23T00:32:15.318Z,9.30
2023-02-23T00:33:15.551Z,10.00
2023-02-23T00:34:15.841Z,10.40
2023-02-23T00:35:15.550Z,9.60
2023-02-23T00:36:15.222Z,9.80
2023-02-23T00:37:15.213Z,10.00
2023-02-23T00:38:15.174Z,10.10
2023-02-23T00:39:15.286Z,10.30
2023-02-23T00:40:15.337Z,9.70
2023-02-23T00:41:15.401Z,10.30
2023-02-23T00:42:15.385Z,10.70
2023-02-23T00:43:15.416Z,9.20
2023-02-23T00:44:15.083Z,9.50
2023-02-23T00:45:15.137Z,9.50
2023-02-23T00:46:15.555Z,8.70
2023-02-23T00:47:15.129Z,10.10
2023-02-23T00:48:15.582Z,10.20
2023-02-23T00:49:15.472Z,9.20
2023-02-23T00:50:15.057Z,9.10
2023-02-23T00:51:15.065Z,9.00
2023-02-23T00:52:15.054Z,9.20
2023-02-23T00:53:15.010Z,9.20
2023-02-23T00:54:15.154Z,9.60
2023-02-23T00:55:15.014Z,9.80
2023-02-23T00:56:15.213Z,8.60
2023-02-23T00:57:15.117Z,9.80
2023-02-23T00:58:15.276Z,10.00
2023-02-23T00:59:15.325Z,9.30
2023-02-23T01:00:14.929Z,8.80
2023-02-23T01:01:14.959Z,10.50
2023-02-23T01:02:14.928Z,8.90
2023-02-23T01:03:14.899Z,8.90
2023-02-23T01:04:14.866Z,10.00
2023-02-23T01:05:14.898Z,10.30
2023-02-23T01:06:14.878Z,10.60
2023-02-23T01:07:14.893Z,10.40
2023-02-23T01:08:14.816Z,10.50
2023-02-23T01:09:14.851Z,9.60
2023-02-23T01:10:14.803Z,10.20
2023-02-23T01:11:14.840Z,10.50
2023-02-23T01:12:14.857Z,9.40
2023-02-23T01:13:14.793Z,11.00
2023-02-23T01:14:14.869Z,9.60
2023-02-23T01:15:14.876Z,10.20
2023-02-23T01:16:14.892Z,9.30
2023-02-23T01:17:14.733Z,9.00
2023-02-23T01:18:14.770Z,11.50
2023-02-23T01:19:14.900Z,10.10
2023-02-23T01:20:14.882Z,10.00
2023-02-23T01:21:14.892Z,10.30
2023-02-23T01:22:14.873Z,10.40
2023-02-23T01:23:14.639Z,10.80
2023-02-23T01:24:14.623Z,11.10
2023-02-23T01:25:14.757Z,10.60
2023-02-23T01:26:14.612Z,10.00
2023-02-23T01:27:14.624Z,10.10
2023-02-23T01:28:14.829Z,10.50
2023-02-23T01:29:14.579Z,10.40
2023-02-23T01:30:14.745Z,10.30
2023-02-23T01:31:15.014Z,10.00
2023-02-23T01:32:14.628Z,10.70
2023-02-23T01:33:14.891Z,11.00
2023-02-23T01:34:14.897Z,9.90
2023-02-23T01:35:14.518Z,9.70
2023-02-23T01:36:14.901Z,9.40
2023-02-23T01:37:14.513Z,9.90
2023-02-23T01:38:14.492Z,10.50
2023-02-23T01:39:14.502Z,10.60
2023-02-23T01:40:14.430Z,10.80
2023-02-23T01:41:14.537Z,10.90
2023-02-23T01:42:14.423Z,10.90
2023-02-23T01:43:14.641Z,10.40
2023-02-23T01:44:14.429Z,11.20
2023-02-23T01:45:14.413Z,11.60
2023-02-23T01:46:14.747Z,9.80
2023-02-23T01:47:14.404Z,10.80
2023-02-23T01:48:14.352Z,9.80
2023-02-23T01:49:14.771Z,9.70
2023-02-23T01:50:14.326Z,10.90
2023-02-23T01:51:14.324Z,11.20
2023-02-23T01:52:14.459Z,11.00
2023-02-23T01:53:14.307Z,10.10
2023-02-23T01:54:14.905Z,10.80
2023-02-23T01:55:14.298Z,10.10
2023-02-23T01:56:14.251Z,11.20
2023-02-23T01:57:14.277Z,8.90
2023-02-23T01:58:14.901Z,11.70
2023-02-23T01:59:14.283Z,10.90
2023-02-23T02:00:14.901Z,10.20
2023-02-23T02:01:14.882Z,10.30
2023-02-23T02:02:14.257Z,10.60
2023-02-23T02:03:14.194Z,9.90
2023-02-23T02:04:14.184Z,10.10
2023-02-23T02:05:14.962Z,9.70
2023-02-23T02:06:14.911Z,10.50
2023-02-23T02:07:14.136Z,9.70
2023-02-23T02:08:14.135Z,10.10
2023-02-23T02:09:14.122Z,10.10
2023-02-23T02:10:14.185Z,10.80
2023-02-23T02:11:14.095Z,10.10
2023-02-23T02:12:14.065Z,10.20
2023-02-23T02:13:14.096Z,10.90
2023-02-23T02:14:14.348Z,10.20
2023-02-23T02:15:14.081Z,10.80
2023-02-23T02:16:14.430Z,9.50
2023-02-23T02:17:14.424Z,9.80
2023-02-23T02:18:14.458Z,10.10
2023-02-23T02:19:13.998Z,10.40
2023-02-23T02:20:14.513Z,11.30
2023-02-23T02:21:14.227Z,10.70
2023-02-23T02:22:13.981Z,11.00
2023-02-23T02:23:14.748Z,11.10
2023-02-23T02:24:13.932Z,10.70
2023-02-23T02:25:13.971Z,9.70
2023-02-23T02:26:13.926Z,10.80
2023-02-23T02:27:13.950Z,11.70
2023-02-23T02:28:13.888Z,10.80
2023-02-23T02:29:13.892Z,15.30
2023-02-23T02:30:13.895Z,12.10
2023-02-23T02:31:13.902Z,12.00
2023-02-23T02:32:13.887Z,11.30
2023-02-23T02:33:13.856Z,10.30
2023-02-23T02:34:13.928Z,11.00
2023-02-23T02:35:13.935Z,9.80
2023-02-23T02:36:13.807Z,11.00
2023-02-23T02:37:13.795Z,10.80
2023-02-23T02:38:13.933Z,10.40
2023-02-23T02:39:13.804Z,11.00
2023-02-23T02:40:13.940Z,12.20
2023-02-23T02:41:13.937Z,10.90
2023-02-23T02:42:13.942Z,9.60
2023-02-23T02:43:13.717Z,10.70
2023-02-23T02:44:13.714Z,11.80
2023-02-23T02:45:13.676Z,10.20
2023-02-23T02:46:13.776Z,10.90
2023-02-23T02:47:13.686Z,11.30
2023-02-23T02:48:13.957Z,11.40
2023-02-23T02:49:13.649Z,11.30
2023-02-23T02:50:13.754Z,11.10
2023-02-23T02:51:13.628Z,12.30
2023-02-23T02:52:13.639Z,11.60
2023-02-23T02:53:13.631Z,11.10
2023-02-23T02:54:13.591Z,12.40
2023-02-23T02:55:13.587Z,10.80
2023-02-23T02:56:13.778Z,10.80
2023-02-23T02:57:13.557Z,10.50
2023-02-23T02:58:13.821Z,10.60
2023-02-23T02:59:13.542Z,10.20
2023-02-23T03:00:13.912Z,10.40
2023-02-23T03:01:13.581Z,11.50
2023-02-23T03:02:13.561Z,10.10
2023-02-23T03:03:13.513Z,11.70
2023-02-23T03:04:13.483Z,11.90
2023-02-23T03:05:13.513Z,11.20
2023-02-23T03:06:13.971Z,10.40
2023-02-23T03:07:13.443Z,10.10
2023-02-23T03:08:13.440Z,10.90
2023-02-23T03:09:13.964Z,10.60
2023-02-23T03:10:13.419Z,9.90
2023-02-23T03:11:13.390Z,10.90
2023-02-23T03:12:13.753Z,10.70
2023-02-23T03:13:13.390Z,10.70
2023-02-23T03:14:13.419Z,9.40
2023-02-23T03:15:13.382Z,10.20
2023-02-23T03:16:13.382Z,10.70
2023-02-23T03:17:13.331Z,9.30
2023-02-23T03:18:13.536Z,9.70
2023-02-23T03:19:13.311Z,10.40
2023-02-23T03:20:13.612Z,10.00
2023-02-23T03:21:13.293Z,10.70
2023-02-23T03:22:13.660Z,10.10
2023-02-23T03:23:13.265Z,9.10
2023-02-23T03:24:13.269Z,9.90
2023-02-23T03:25:13.224Z,10.20
2023-02-23T03:26:13.262Z,8.80
2023-02-23T03:27:13.506Z,9.50
2023-02-23T03:28:13.839Z,9.00
2023-02-23T03:29:13.181Z,9.60
2023-02-23T03:30:13.347Z,8.70
2023-02-23T03:31:13.298Z,9.80
2023-02-23T03:32:13.298Z,8.90
2023-02-23T03:33:13.966Z,8.70
2023-02-23T03:34:13.148Z,9.50
2023-02-23T03:35:13.120Z,9.20
2023-02-23T03:36:13.153Z,9.40
2023-02-23T03:37:13.109Z,9.10
2023-02-23T03:38:13.128Z,9.20
2023-02-23T03:39:13.077Z,9.70
2023-02-23T03:40:13.101Z,9.90
2023-02-23T03:41:13.207Z,9.00
2023-02-23T03:42:13.246Z,9.80
2023-02-23T03:43:13.024Z,10.60
2023-02-23T03:44:13.025Z,9.00
2023-02-23T03:45:13.004Z,10.80
2023-02-23T03:46:13.038Z,9.40
2023-02-23T03:47:12.980Z,9.90
2023-02-23T03:48:12.995Z,11.70
2023-02-23T03:49:12.948Z,9.60
2023-02-23T03:50:12.965Z,9.80
2023-02-23T03:51:12.945Z,9.80
2023-02-23T03:52:12.979Z,10.10
2023-02-23T03:53:13.002Z,12.60
2023-02-23T03:54:13.013Z,9.70
2023-02-23T03:55:12.873Z,9.50
2023-02-23T03:56:12.896Z,9.10
2023-02-23T03:57:12.885Z,10.70
2023-02-23T03:58:12.865Z,8.50
2023-02-23T03:59:12.859Z,9.60
2023-02-23T04:00:13.010Z,10.10
2023-02-23T04:01:12.824Z,11.40
2023-02-23T04:02:12.848Z,10.00
2023-02-23T04:03:12.848Z,9.40
2023-02-23T04:04:12.898Z,10.20
2023-02-23T04:05:12.755Z,9.30
2023-02-23T04:06:12.987Z,10.10
2023-02-23T04:07:12.995Z,9.70
2023-02-23T04:08:12.776Z,10.00
2023-02-23T04:09:12.728Z,9.00
2023-02-23T04:10:12.948Z,9.40
2023-02-23T04:11:12.689Z,8.90
2023-02-23T04:12:12.699Z,9.60
2023-02-23T04:13:12.695Z,9.80
2023-02-23T04:14:12.706Z,8.70
2023-02-23T04:15:12.646Z,9.90
2023-02-23T04:16:13.079Z,9.40
2023-02-23T04:17:12.623Z,9.20
2023-02-23T04:18:13.045Z,9.60
2023-02-23T04:19:12.615Z,9.40
2023-02-23T04:20:12.618Z,9.70
2023-02-23T04:21:13.033Z,8.50
2023-02-23T04:22:12.761Z,9.20
2023-02-23T04:23:13.015Z,8.90
2023-02-23T04:24:12.573Z,11.70
2023-02-23T04:25:12.586Z,10.10
2023-02-23T04:26:12.664Z,8.50
2023-02-23T04:27:12.502Z,9.10
2023-02-23T04:28:12.516Z,9.50
2023-02-23T04:29:12.478Z,8.20
2023-02-23T04:30:12.515Z,8.50
2023-02-23T04:31:12.470Z,7.70
2023-02-23T04:32:13.002Z,8.40
2023-02-23T04:33:12.474Z,8.30
2023-02-23T04:34:12.868Z,8.80
2023-02-23T04:35:12.424Z,8.40
2023-02-23T04:36:12.435Z,8.70
2023-02-23T04:37:12.413Z,9.50
2023-02-23T04:38:13.003Z,9.20
2023-02-23T04:39:12.384Z,7.90
2023-02-23T04:40:12.416Z,9.00
2023-02-23T04:41:13.030Z,8.30
2023-02-23T04:42:12.544Z,9.10
2023-02-23T04:43:12.353Z,8.30
2023-02-23T04:44:13.043Z,8.10
2023-02-23T04:45:12.311Z,8.40
2023-02-23T04:46:13.011Z,8.40
2023-02-23T04:47:12.720Z,8.70
2023-02-23T04:48:12.306Z,9.20
2023-02-23T04:49:12.283Z,7.60
2023-02-23T04:50:12.328Z,9.60
2023-02-23T04:51:12.267Z,8.10
2023-02-23T04:52:12.249Z,8.30
2023-02-23T04:53:12.257Z,9.60
2023-02-23T04:54:12.243Z,8.20
2023-02-23T04:55:12.471Z,8.30
2023-02-23T04:56:12.490Z,8.80
2023-02-23T04:57:12.510Z,9.30
2023-02-23T04:58:12.553Z,8.40
2023-02-23T04:59:12.585Z,8.20
2023-02-23T05:00:12.182Z,8.60
2023-02-23T05:01:12.677Z,8.70
2023-02-23T05:02:12.129Z,8.90
2023-02-23T05:03:12.123Z,8.90
2023-02-23T05:04:12.751Z,9.90
2023-02-23T05:05:12.853Z,8.30
2023-02-23T05:06:12.104Z,8.50
2023-02-23T05:07:12.066Z,8.80
2023-02-23T05:08:12.052Z,8.70
2023-02-23T05:09:12.048Z,8.10
2023-02-23T05:10:12.067Z,8.50
2023-02-23T05:11:12.067Z,7.90
2023-02-23T05:12:12.007Z,7.20
2023-02-23T05:13:12.066Z,8.60
2023-02-23T05:14:11.993Z,7.40
2023-02-23T05:15:11.978Z,8.80
2023-02-23T05:16:12.011Z,8.50
2023-02-23T05:17:11.984Z,7.70
2023-02-23T05:18:11.942Z,7.10
2023-02-23T05:19:12.057Z,8.40
2023-02-23T05:20:11.952Z,8.40
2023-02-23T05:21:12.054Z,7.80
2023-02-23T05:22:11.917Z,8.60
2023-02-23T05:23:11.868Z,8.50
2023-02-23T05:24:11.879Z,7.00
2023-02-23T05:25:11.867Z,7.30
2023-02-23T05:26:11.869Z,7.90
2023-02-23T05:27:11.826Z,9.40
2023-02-23T05:28:11.839Z,8.10
2023-02-23T05:29:12.088Z,7.80
2023-02-23T05:30:11.801Z,8.10
2023-02-23T05:31:11.836Z,9.00
2023-02-23T05:32:11.903Z,7.90
2023-02-23T05:33:11.756Z,8.90
2023-02-23T05:34:11.764Z,7.70
2023-02-23T05:35:11.769Z,8.20
2023-02-23T05:36:11.759Z,8.00
2023-02-23T05:37:11.765Z,7.40
2023-02-23T05:38:11.717Z,8.10
2023-02-23T05:39:11.677Z,7.30
2023-02-23T05:40:11.693Z,7.20
2023-02-23T05:41:11.679Z,6.20
2023-02-23T05:42:11.658Z,6.30
2023-02-23T05:43:11.632Z,7.10
2023-02-23T05:44:11.660Z,6.80
2023-02-23T05:45:12.000Z,6.90
2023-02-23T05:46:11.665Z,7.30
2023-02-23T05:47:11.607Z,7.30
2023-02-23T05:48:11.608Z,6.60
2023-02-23T05:49:12.721Z,7.90
2023-02-23T05:50:11.606Z,6.70
2023-02-23T05:51:11.560Z,6.60
2023-02-23T05:52:11.551Z,6.30
2023-02-23T05:53:12.084Z,7.20
2023-02-23T05:54:12.096Z,6.70
2023-02-23T05:55:11.557Z,5.80
2023-02-23T05:56:11.531Z,5.20
2023-02-23T05:57:11.472Z,5.90
2023-02-23T05:58:11.492Z,4.90
2023-02-23T05:59:11.450Z,5.40
2023-02-23T06:00:11.466Z,5.50
2023-02-23T06:01:11.567Z,5.60
2023-02-23T06:02:11.444Z,5.20
2023-02-23T06:03:11.403Z,5.40
2023-02-23T06:04:11.406Z,5.20
2023-02-23T06:05:11.389Z,6.40
2023-02-23T06:06:11.390Z,5.70
2023-02-23T06:07:11.379Z,5.70
2023-02-23T06:08:11.369Z,6.80
2023-02-23T06:09:11.936Z,6.10
2023-02-23T06:10:11.350Z,7.40
2023-02-23T06:11:11.338Z,5.70
2023-02-23T06:12:11.326Z,7.00
2023-02-23T06:13:11.295Z,6.80
2023-02-23T06:14:11.305Z,7.40
2023-02-23T06:15:11.282Z,6.20
2023-02-23T06:16:11.579Z,6.90
2023-02-23T06:17:12.117Z,6.70
2023-02-23T06:18:11.299Z,7.20
2023-02-23T06:19:11.221Z,7.70
2023-02-23T06:20:11.227Z,7.70
2023-02-23T06:21:11.203Z,6.80
2023-02-23T06:22:11.218Z,8.50
2023-02-23T06:23:11.737Z,9.40
2023-02-23T06:24:11.192Z,8.10
2023-02-23T06:25:11.190Z,8.70
2023-02-23T06:26:11.184Z,11.30
2023-02-23T06:27:11.158Z,10.60
2023-02-23T06:28:11.139Z,10.80
2023-02-23T06:29:11.110Z,11.50
2023-02-23T06:30:11.133Z,9.70
2023-02-23T06:31:11.433Z,10.90
2023-02-23T06:32:11.208Z,10.00
2023-02-23T06:33:11.104Z,10.50
2023-02-23T06:34:11.070Z,10.60
2023-02-23T06:35:11.037Z,11.00
2023-02-23T06:36:11.067Z,10.50
2023-02-23T06:37:11.029Z,11.20
2023-02-23T06:38:11.057Z,11.30
2023-02-23T06:39:11.622Z,10.80
2023-02-23T06:40:11.194Z,12.20
2023-02-23T06:41:11.117Z,12.50
2023-02-23T06:42:10.969Z,12.10
2023-02-23T06:43:10.970Z,11.70
2023-02-23T06:44:10.947Z,12.60
2023-02-23T06:45:10.918Z,12.50
2023-02-23T06:46:10.951Z,12.70
2023-02-23T06:47:10.945Z,13.50
2023-02-23T06:48:10.895Z,13.40
2023-02-23T06:49:11.121Z,13.50
2023-02-23T06:50:10.870Z,13.10
2023-02-23T06:51:10.904Z,13.20
2023-02-23T06:52:10.854Z,13.40
2023-02-23T06:53:10.878Z,14.00
2023-02-23T06:54:10.831Z,13.80
2023-02-23T06:55:10.820Z,14.20
2023-02-23T06:56:12.475Z,13.00
2023-02-23T06:57:11.130Z,14.20
2023-02-23T06:58:10.789Z,13.90
2023-02-23T06:59:10.772Z,13.20
2023-02-23T07:00:10.773Z,15.20
2023-02-23T07:01:10.755Z,13.10
2023-02-23T07:02:10.723Z,13.80
2023-02-23T07:03:10.740Z,13.30
2023-02-23T07:04:10.777Z,13.00
2023-02-23T07:05:11.138Z,12.80
2023-02-23T07:06:10.673Z,12.90
2023-02-23T07:07:10.673Z,13.10
2023-02-23T07:08:10.673Z,12.70
2023-02-23T07:09:10.648Z,12.90
2023-02-23T07:10:10.653Z,13.10
2023-02-23T07:11:11.577Z,13.00
2023-02-23T07:12:10.603Z,12.80
2023-02-23T07:13:10.637Z,12.30
2023-02-23T07:14:12.899Z,12.30
2023-02-23T07:15:10.585Z,11.50
2023-02-23T07:16:10.720Z,11.70
2023-02-23T07:17:12.591Z,11.00
2023-02-23T07:18:10.525Z,12.60
2023-02-23T07:19:10.559Z,11.90
2023-02-23T07:20:10.504Z,11.60
2023-02-23T07:21:10.892Z,12.00
2023-02-23T07:22:10.700Z,12.60
2023-02-23T07:23:10.507Z,10.70
2023-02-23T07:24:10.974Z,12.30
2023-02-23T07:25:10.486Z,11.30
2023-02-23T07:26:10.467Z,11.60
2023-02-23T07:27:11.074Z,12.10
2023-02-23T07:28:10.417Z,11.50
2023-02-23T07:29:10.452Z,12.00
2023-02-23T07:30:10.438Z,11.70
2023-02-23T07:31:10.399Z,13.10
2023-02-23T07:32:10.728Z,11.60
2023-02-23T07:33:10.387Z,11.90
2023-02-23T07:34:10.346Z,12.10
2023-02-23T07:35:10.372Z,12.70
2023-02-23T07:36:10.352Z,12.60
2023-02-23T07:37:10.399Z,13.00
2023-02-23T07:38:10.727Z,12.80
2023-02-23T07:39:10.351Z,12.70
2023-02-23T07:40:10.332Z,14.00
2023-02-23T07:41:10.275Z,12.80
2023-02-23T07:42:10.246Z,11.70
2023-02-23T07:43:10.266Z,12.50
2023-02-23T07:44:10.242Z,12.70
2023-02-23T07:45:10.967Z,13.10
2023-02-23T07:46:10.296Z,13.70
2023-02-23T07:47:10.385Z,12.80
2023-02-23T07:48:10.196Z,13.70
2023-02-23T07:49:10.194Z,13.20
2023-02-23T07:50:10.228Z,12.50
2023-02-23T07:51:10.196Z,12.30
2023-02-23T07:52:10.160Z,12.80
2023-02-23T07:53:10.158Z,13.20
2023-02-23T07:54:10.124Z,13.20
2023-02-23T07:55:10.201Z,14.20
2023-02-23T07:56:10.195Z,13.80
2023-02-23T07:57:10.106Z,12.60
2023-02-23T07:58:10.088Z,13.10
2023-02-23T07:59:10.101Z,13.70
2023-02-23T08:00:10.071Z,12.50
2023-02-23T08:01:10.114Z,12.70
2023-02-23T08:02:10.055Z,14.40
2023-02-23T08:03:10.184Z,13.00
2023-02-23T08:04:10.036Z,13.30
2023-02-23T08:05:10.012Z,13.50
2023-02-23T08:06:10.009Z,13.00
2023-02-23T08:07:09.997Z,13.40
2023-02-23T08:08:09.969Z,13.30
2023-02-23T08:09:09.981Z,14.20
2023-02-23T08:10:09.937Z,13.10
2023-02-23T08:11:10.196Z,13.80
2023-02-23T08:12:09.917Z,13.80
2023-02-23T08:13:09.914Z,14.40
2023-02-23T08:14:09.888Z,13.50
2023-02-23T08:15:09.922Z,13.50
2023-02-23T08:16:09.891Z,12.90
2023-02-23T08:17:09.876Z,14.00
2023-02-23T08:18:09.928Z,13.30
2023-02-23T08:19:09.872Z,13.00
2023-02-23T08:20:09.819Z,12.80
2023-02-23T08:21:09.846Z,13.50
2023-02-23T08:22:10.372Z,13.70
2023-02-23T08:23:09.807Z,13.00
2023-02-23T08:24:09.770Z,13.40
2023-02-23T08:25:09.807Z,13.30
2023-02-23T08:26:09.811Z,12.10
2023-02-23T08:27:10.207Z,12.10
2023-02-23T08:28:09.747Z,12.70
2023-02-23T08:29:09.805Z,12.80
2023-02-23T08:30:09.736Z,12.80
2023-02-23T08:31:09.777Z,14.20
2023-02-23T08:32:09.799Z,12.20
2023-02-23T08:33:09.706Z,12.50
2023-02-23T08:34:09.659Z,14.40
2023-02-23T08:35:09.971Z,14.70
2023-02-23T08:36:09.647Z,13.50
2023-02-23T08:37:09.825Z,11.70
2023-02-23T08:38:09.659Z,13.20
2023-02-23T08:39:09.614Z,14.30
2023-02-23T08:40:10.213Z,13.90
2023-02-23T08:41:09.625Z,14.10
2023-02-23T08:42:09.614Z,12.80
2023-02-23T08:43:09.566Z,14.20
2023-02-23T08:44:10.217Z,12.30
2023-02-23T08:45:09.555Z,13.00
2023-02-23T08:46:09.608Z,12.00
2023-02-23T08:47:09.557Z,13.10
2023-02-23T08:48:09.540Z,12.50
2023-02-23T08:49:09.536Z,13.40
2023-02-23T08:50:09.487Z,13.40
2023-02-23T08:51:09.656Z,13.50
2023-02-23T08:52:09.471Z,14.00
2023-02-23T08:53:09.474Z,12.80
2023-02-23T08:54:09.460Z,12.60
2023-02-23T08:55:09.434Z,12.60
2023-02-23T08:56:09.820Z,13.50
2023-02-23T08:57:11.683Z,12.80
2023-02-23T08:58:09.439Z,13.90
2023-02-23T08:59:09.929Z,12.60
2023-02-23T09:00:09.935Z,14.60
2023-02-23T09:01:09.426Z,12.80
2023-02-23T09:02:09.336Z,13.10
2023-02-23T09:03:09.343Z,13.00
2023-02-23T09:04:09.472Z,14.50
2023-02-23T09:05:09.410Z,13.50
2023-02-23T09:06:09.281Z,14.30
2023-02-23T09:07:09.309Z,14.90
2023-02-23T09:08:09.273Z,13.40
2023-02-23T09:09:09.311Z,12.60
2023-02-23T09:10:09.249Z,13.40
2023-02-23T09:11:09.239Z,11.90
2023-02-23T09:12:09.226Z,13.50
2023-02-23T09:13:09.235Z,14.30
2023-02-23T09:14:09.237Z,13.30
2023-02-23T09:15:09.227Z,11.30
2023-02-23T09:16:09.231Z,12.60
2023-02-23T09:17:09.209Z,14.10
2023-02-23T09:18:09.150Z,13.00
2023-02-23T09:19:09.171Z,11.70
2023-02-23T09:20:09.159Z,12.50
2023-02-23T09:21:09.133Z,12.10
2023-02-23T09:22:09.102Z,11.90
2023-02-23T09:23:09.112Z,12.30
2023-02-23T09:24:09.116Z,12.00
2023-02-23T09:25:09.073Z,12.20
2023-02-23T09:26:09.057Z,11.30
2023-02-23T09:27:09.059Z,11.70
2023-02-23T09:28:09.058Z,11.60
2023-02-23T09:29:09.039Z,12.40
2023-02-23T09:30:09.022Z,11.90
2023-02-23T09:31:09.373Z,10.90
2023-02-23T09:32:09.343Z,11.40
2023-02-23T09:33:09.005Z,11.30
2023-02-23T09:34:08.957Z,11.70
2023-02-23T09:35:08.964Z,10.80
2023-02-23T09:36:08.951Z,11.60
2023-02-23T09:37:08.953Z,12.00
2023-02-23T09:38:08.920Z,10.90
2023-02-23T09:39:09.143Z,11.20
2023-02-23T09:40:08.886Z,11.10
2023-02-23T09:41:08.913Z,10.80
2023-02-23T09:42:08.861Z,12.40
2023-02-23T09:43:08.875Z,11.70
2023-02-23T09:44:08.854Z,11.60
2023-02-23T09:45:08.851Z,11.80
2023-02-23T09:46:08.883Z,12.30
2023-02-23T09:47:10.829Z,11.80
2023-02-23T09:48:08.817Z,11.20
2023-02-23T09:49:08.838Z,11.80
2023-02-23T09:50:08.849Z,12.40
2023-02-23T09:51:08.800Z,12.00
2023-02-23T09:52:08.749Z,12.10
2023-02-23T09:53:08.762Z,11.90
2023-02-23T09:54:08.754Z,13.40
2023-02-23T09:55:09.122Z,12.40
2023-02-23T09:56:08.755Z,12.80
2023-02-23T09:57:08.720Z,13.30
2023-02-23T09:58:08.703Z,13.20
2023-02-23T09:59:10.079Z,12.60
2023-02-23T10:00:09.298Z,12.60
2023-02-23T10:01:08.712Z,12.50
2023-02-23T10:02:08.674Z,11.10
2023-02-23T10:03:09.381Z,12.40
2023-02-23T10:04:08.632Z,11.60
2023-02-23T10:05:08.675Z,11.10
2023-02-23T10:06:08.594Z,10.70
2023-02-23T10:07:08.618Z,11.30
2023-02-23T10:08:08.560Z,12.10
2023-02-23T10:09:08.586Z,11.90
2023-02-23T10:10:08.578Z,11.10
2023-02-23T10:11:09.649Z,12.70
2023-02-23T10:12:08.525Z,12.70
2023-02-23T10:13:08.575Z,11.60
2023-02-23T10:14:08.494Z,12.70
2023-02-23T10:15:08.499Z,12.20
2023-02-23T10:16:09.687Z,11.80
2023-02-23T10:17:08.492Z,12.80
2023-02-23T10:18:08.493Z,17.00
2023-02-23T10:19:09.096Z,16.10
2023-02-23T10:20:08.435Z,13.60
2023-02-23T10:21:08.428Z,14.20
2023-02-23T10:22:08.487Z,14.50
2023-02-23T10:23:08.458Z,13.60
2023-02-23T10:24:08.398Z,13.60
2023-02-23T10:25:08.388Z,12.70
2023-02-23T10:26:08.370Z,11.70
2023-02-23T10:27:08.617Z,12.90
2023-02-23T10:28:08.338Z,11.00
2023-02-23T10:29:08.363Z,12.10
2023-02-23T10:30:08.309Z,12.70
2023-02-23T10:31:08.447Z,12.40
2023-02-23T10:32:08.449Z,12.50
2023-02-23T10:33:08.291Z,11.20
2023-02-23T10:34:08.296Z,12.70
2023-02-23T10:35:08.310Z,12.40
2023-02-23T10:36:13.531Z,11.60
2023-02-23T10:37:09.246Z,10.50
2023-02-23T10:38:08.229Z,12.40
2023-02-23T10:39:08.215Z,11.50
2023-02-23T10:40:08.289Z,11.70
2023-02-23T10:41:08.186Z,11.60
2023-02-23T10:42:08.208Z,12.60
2023-02-23T10:43:08.297Z,10.90
2023-02-23T10:44:16.696Z,11.00
2023-02-23T10:45:09.157Z,10.70
2023-02-23T10:46:08.147Z,10.90
2023-02-23T10:47:08.129Z,10.70
2023-02-23T10:48:08.964Z,11.00
2023-02-23T10:49:08.099Z,9.70
2023-02-23T10:50:08.090Z,11.50
2023-02-23T10:51:08.313Z,11.00
2023-02-23T10:52:08.076Z,10.50
2023-02-23T10:53:08.062Z,11.00
2023-02-23T10:54:08.328Z,9.90
2023-02-23T10:55:08.048Z,10.90
2023-02-23T10:56:08.927Z,10.50
2023-02-23T10:57:08.013Z,10.20
2023-02-23T10:58:07.994Z,10.50
2023-02-23T10:59:08.310Z,10.70
2023-02-23T11:00:07.977Z,10.60
2023-02-23T11:01:07.966Z,11.00
2023-02-23T11:02:08.323Z,11.40
2023-02-23T11:03:07.931Z,11.60
2023-02-23T11:04:08.318Z,10.80
2023-02-23T11:05:07.936Z,10.70
2023-02-23T11:06:07.905Z,12.60
2023-02-23T11:07:07.897Z,12.00
2023-02-23T11:08:07.886Z,12.10
2023-02-23T11:09:07.872Z,12.00
2023-02-23T11:10:07.839Z,12.70
2023-02-23T11:11:07.879Z,10.40
2023-02-23T11:12:08.054Z,13.30
2023-02-23T11:13:08.072Z,12.20
2023-02-23T11:14:07.818Z,11.00
2023-02-23T11:15:08.134Z,13.00
2023-02-23T11:16:07.839Z,12.70
2023-02-23T11:17:07.756Z,13.10
2023-02-23T11:18:07.770Z,11.80
2023-02-23T11:19:07.737Z,13.80
2023-02-23T11:20:07.736Z,12.70
2023-02-23T11:21:07.727Z,13.30
2023-02-23T11:22:07.719Z,12.10
2023-02-23T11:23:14.273Z,11.90
2023-02-23T11:24:08.717Z,12.10
2023-02-23T11:25:07.693Z,13.50
2023-02-23T11:26:07.675Z,12.80
2023-02-23T11:27:07.647Z,12.80
2023-02-23T11:28:07.668Z,13.60
2023-02-23T11:29:08.201Z,12.20
2023-02-23T11:30:07.656Z,11.70
2023-02-23T11:31:07.696Z,11.80
2023-02-23T11:32:10.205Z,11.70
2023-02-23T11:33:07.576Z,12.00
2023-02-23T11:34:07.587Z,12.90
2023-02-23T11:35:08.410Z,13.30
2023-02-23T11:36:08.447Z,12.90
2023-02-23T11:37:08.356Z,14.50
2023-02-23T11:38:07.535Z,12.80
2023-02-23T11:39:07.520Z,13.30
2023-02-23T11:40:08.491Z,12.80
2023-02-23T11:41:07.477Z,13.00
2023-02-23T11:42:07.503Z,12.10
2023-02-23T11:43:07.578Z,12.20
2023-02-23T11:44:08.100Z,11.80
2023-02-23T11:45:07.452Z,12.50
2023-02-23T11:46:07.465Z,12.00
2023-02-23T11:47:07.493Z,12.30
2023-02-23T11:48:07.455Z,12.80
2023-02-23T11:49:07.394Z,11.10
2023-02-23T11:50:08.316Z,11.90
2023-02-23T11:51:07.380Z,12.10
2023-02-23T11:52:08.170Z,13.10
2023-02-23T11:53:07.345Z,12.20
2023-02-23T11:54:07.357Z,11.30
2023-02-23T11:55:07.375Z,10.20
2023-02-23T11:56:07.334Z,11.20
2023-02-23T11:57:07.337Z,10.30
2023-02-23T11:58:07.353Z,10.20
2023-02-23T11:59:07.410Z,11.40
2023-02-23T12:00:07.352Z,10.40
2023-02-23T12:01:07.289Z,10.30
2023-02-23T12:02:07.277Z,9.60
2023-02-23T12:03:07.256Z,10.00
2023-02-23T12:04:07.233Z,11.80
2023-02-23T12:05:07.240Z,10.20
2023-02-23T12:06:07.261Z,10.30
2023-02-23T12:07:07.183Z,10.60
2023-02-23T12:08:07.241Z,9.60
2023-02-23T12:09:07.153Z,9.70
2023-02-23T12:10:07.181Z,11.60
2023-02-23T12:11:07.143Z,10.50
2023-02-23T12:12:07.153Z,9.90
2023-02-23T12:13:07.146Z,9.70
2023-02-23T12:14:07.154Z,10.10
2023-02-23T12:15:07.086Z,11.60
2023-02-23T12:16:07.159Z,10.80
2023-02-23T12:17:07.058Z,10.80
2023-02-23T12:18:07.104Z,9.60
2023-02-23T12:19:07.045Z,11.00
2023-02-23T12:20:07.065Z,11.50
2023-02-23T12:21:07.014Z,11.20
2023-02-23T12:22:07.022Z,11.20
2023-02-23T12:23:07.013Z,11.40
2023-02-23T12:24:07.035Z,12.10
2023-02-23T12:25:06.972Z,12.30
2023-02-23T12:26:06.989Z,12.50
2023-02-23T12:27:06.976Z,12.20
2023-02-23T12:28:18.182Z,11.50
2023-02-23T12:29:07.948Z,11.80
2023-02-23T12:30:09.102Z,11.00
2023-02-23T12:31:06.947Z,10.00
2023-02-23T12:32:07.033Z,10.70
2023-02-23T12:33:06.920Z,9.90
2023-02-23T12:34:06.899Z,10.20
2023-02-23T12:35:06.874Z,11.40
2023-02-23T12:36:06.879Z,10.00
2023-02-23T12:37:06.855Z,10.20
2023-02-23T12:38:07.393Z,10.30
2023-02-23T12:39:07.376Z,10.30
2023-02-23T12:40:07.374Z,11.30
2023-02-23T12:41:06.822Z,11.70
2023-02-23T12:42:06.814Z,12.80
2023-02-23T12:43:06.845Z,11.20
2023-02-23T12:44:06.806Z,11.60
2023-02-23T12:45:06.733Z,9.30
2023-02-23T12:46:08.504Z,11.50
2023-02-23T12:47:06.732Z,10.80
2023-02-23T12:48:06.767Z,10.10
2023-02-23T12:49:06.700Z,9.70
2023-02-23T12:50:06.711Z,9.20
2023-02-23T12:51:06.678Z,10.80
2023-02-23T12:52:06.683Z,10.10
2023-02-23T12:53:06.652Z,10.00
2023-02-23T12:54:06.652Z,10.30
2023-02-23T12:55:06.635Z,8.60
2023-02-23T12:56:06.616Z,9.80
2023-02-23T12:57:06.657Z,9.30
2023-02-23T12:58:06.601Z,9.40
2023-02-23T12:59:06.606Z,9.20
2023-02-23T13:00:06.684Z,9.00